Time;durP1;ratioP1;P1;durP2;ratioP2;P2;SDS_P1;SDS_P2;PMS_P1;PMS_P2;Temp;Humidity;BMP_temperature;BMP_pressure;BME280_temperature;BME280_humidity;BME280_pressure;Samples;Min_cycle;Max_cycle;Signal;HPM_P1;HPM_P2
2021/01/23 00:00:48;;;;;;;22.80;18.33;;;;;20.80;98594.00;;;;2073483;28;20794;-68
2021/01/23 00:01:48;;;;;;;21.00;18.90;;;;;20.70;98599.00;;;;2082717;28;20209;-68
2021/01/23 00:02:48;;;;;;;20.07;18.03;;;;;20.70;98593.00;;;;2086920;28;20204;-68
2021/01/23 00:03:50;;;;;;;20.00;18.00;;;;;20.70;98597.00;;;;2086699;28;20267;-68
2021/01/23 00:04:51;;;;;;;19.95;17.85;;;;;20.70;98590.00;;;;2078557;28;20310;-68
2021/01/23 00:05:51;;;;;;;21.30;19.10;;;;;20.70;98592.00;;;;2070894;28;20214;-68
2021/01/23 00:06:52;;;;;;;19.17;17.07;;;;;20.70;98591.00;;;;2078770;28;20299;-68
2021/01/23 00:07:52;;;;;;;19.60;17.50;;;;;20.70;98566.00;;;;2083035;28;21235;-68
2021/01/23 00:08:53;;;;;;;19.27;17.07;;;;;20.70;98594.00;;;;2083693;28;20616;-68
2021/01/23 00:09:53;;;;;;;18.63;16.73;;;;;20.70;98588.00;;;;2087892;28;20253;-68
2021/01/23 00:10:53;;;;;;;17.90;16.10;;;;;20.70;98592.00;;;;2087690;28;20236;-68
2021/01/23 00:11:54;;;;;;;19.20;17.30;;;;;20.70;98584.00;;;;2087914;28;20213;-68
2021/01/23 00:12:54;;;;;;;17.60;15.90;;;;;20.70;98579.00;;;;2087507;28;20595;-68
2021/01/23 00:13:55;;;;;;;17.37;15.77;;;;;20.70;98588.00;;;;2087188;28;20252;-68
2021/01/23 00:14:55;;;;;;;19.00;17.00;;;;;20.70;98590.00;;;;2087366;28;20219;-68
2021/01/23 00:15:56;;;;;;;17.00;15.40;;;;;20.70;98579.00;;;;2087782;28;20245;-68
2021/01/23 00:16:56;;;;;;;17.77;15.87;;;;;20.70;98586.00;;;;2087714;28;20218;-68
2021/01/23 00:17:56;;;;;;;17.60;15.70;;;;;20.70;98586.00;;;;2087845;28;20303;-68
2021/01/23 00:18:56;;;;;;;17.87;16.17;;;;;20.70;98585.00;;;;2087613;28;20213;-68
2021/01/23 00:19:57;;;;;;;17.93;16.13;;;;;20.70;98585.00;;;;2087716;28;20216;-68
2021/01/23 00:20:57;;;;;;;16.23;14.67;;;;;20.70;98580.00;;;;2087596;28;20258;-68
2021/01/23 00:21:57;;;;;;;19.03;16.93;;;;;20.70;98580.00;;;;2087624;28;20956;-68
2021/01/23 00:22:58;;;;;;;17.47;15.87;;;;;20.70;98582.00;;;;2087733;28;20636;-68
2021/01/23 00:23:58;;;;;;;16.40;14.70;;;;;20.70;98589.00;;;;2087246;28;20249;-68
2021/01/23 00:24:58;;;;;;;14.97;13.27;;;;;20.60;98584.00;;;;2086733;28;20299;-68
2021/01/23 00:25:59;;;;;;;15.53;13.93;;;;;20.60;98581.00;;;;2087610;28;20212;-68
2021/01/23 00:26:59;;;;;;;17.23;15.30;;;;;20.60;98575.00;;;;2087572;28;20243;-68
2021/01/23 00:27:59;;;;;;;15.77;14.23;;;;;20.60;98577.00;;;;2087814;28;20220;-68
2021/01/23 00:29:00;;;;;;;16.30;14.50;;;;;20.60;98574.00;;;;2087587;28;20674;-68
2021/01/23 00:30:00;;;;;;;16.60;14.80;;;;;20.60;98580.00;;;;2087621;28;20691;-69
2021/01/23 00:31:01;;;;;;;15.40;14.00;;;;;20.60;98582.00;;;;2078621;28;20710;-68
2021/01/23 00:32:01;;;;;;;15.30;13.70;;;;;20.60;98576.00;;;;2078606;28;20664;-68
2021/01/23 00:33:01;;;;;;;14.73;13.23;;;;;20.60;98577.00;;;;2078746;28;20229;-68
2021/01/23 00:34:02;;;;;;;15.47;13.97;;;;;20.60;98580.00;;;;2070011;28;20313;-68
2021/01/23 00:35:02;;;;;;;14.30;12.80;;;;;20.60;98582.00;;;;2078796;28;20224;-68
2021/01/23 00:36:03;;;;;;;14.40;13.00;;;;;20.60;98574.00;;;;2087775;28;20216;-68
2021/01/23 00:37:03;;;;;;;15.00;13.60;;;;;20.60;98574.00;;;;2087306;28;20239;-68
2021/01/23 00:38:03;;;;;;;14.77;13.27;;;;;20.60;98583.00;;;;2087807;28;20251;-68
2021/01/23 00:39:05;;;;;;;13.30;12.00;;;;;20.60;98574.00;;;;2087607;28;20216;-68
2021/01/23 00:40:06;;;;;;;13.98;12.57;;;;;20.60;98578.00;;;;2070817;28;20731;-68
2021/01/23 00:41:06;;;;;;;14.07;12.67;;;;;20.60;98576.00;;;;2070798;28;20218;-68
2021/01/23 00:42:06;;;;;;;13.93;12.50;;;;;20.60;98573.00;;;;2078747;28;20220;-68
2021/01/23 00:43:07;;;;;;;14.20;12.77;;;;;20.60;98564.00;;;;2087567;28;20746;-68
2021/01/23 00:44:07;;;;;;;12.00;10.83;;;;;20.60;98579.00;;;;2087296;28;20590;-68
2021/01/23 00:45:08;;;;;;;12.73;11.47;;;;;20.60;98573.00;;;;2087578;28;20574;-68
2021/01/23 00:46:09;;;;;;;13.45;12.15;;;;;20.60;98575.00;;;;2087747;28;20266;-68
2021/01/23 00:47:09;;;;;;;12.37;11.17;;;;;20.60;98580.00;;;;2087726;28;20767;-68
2021/01/23 00:48:10;;;;;;;14.00;12.60;;;;;20.60;98584.00;;;;2087612;28;20715;-68
2021/01/23 00:49:11;;;;;;;12.63;11.45;;;;;20.60;98587.00;;;;2070044;28;20221;-68
2021/01/23 00:50:11;;;;;;;12.60;11.30;;;;;20.50;98579.00;;;;2070538;28;20214;-68
2021/01/23 00:51:12;;;;;;;13.90;11.20;;;;;20.60;98566.00;;;;2085493;28;20231;-68
2021/01/23 00:52:12;;;;;;;12.47;11.23;;;;;20.60;98584.00;;;;2077986;28;20233;-68
2021/01/23 00:53:12;;;;;;;11.47;10.37;;;;;20.60;98583.00;;;;2078315;28;20225;-68
2021/01/23 00:54:13;;;;;;;13.23;11.93;;;;;20.50;98586.00;;;;2087106;28;20221;-68
2021/01/23 00:55:13;;;;;;;11.73;10.60;;;;;20.60;98584.00;;;;2087500;28;20243;-68
2021/01/23 00:56:13;;;;;;;12.27;11.10;;;;;20.60;98584.00;;;;2087506;28;20224;-68
2021/01/23 00:57:14;;;;;;;11.33;10.30;;;;;20.60;98583.00;;;;2087584;28;20231;-68
2021/01/23 00:58:14;;;;;;;11.70;10.53;;;;;20.50;98588.00;;;;2087698;28;20637;-68
2021/01/23 00:59:14;;;;;;;12.20;10.63;;;;;20.50;98589.00;;;;2087398;28;20716;-68
2021/01/23 01:00:15;;;;;;;12.10;10.87;;;;;20.50;98590.00;;;;2087531;28;20315;-68
2021/01/23 01:01:16;;;;;;;14.07;11.00;;;;;20.50;98585.00;;;;2078914;28;20220;-68
2021/01/23 01:02:16;;;;;;;11.53;10.43;;;;;20.50;98592.00;;;;2078862;28;20718;-67
2021/01/23 01:03:16;;;;;;;11.97;10.80;;;;;20.50;98598.00;;;;2087111;28;20217;-68
2021/01/23 01:04:17;;;;;;;11.60;10.40;;;;;20.50;98600.00;;;;2087375;28;20217;-68
2021/01/23 01:05:17;;;;;;;10.90;9.90;;;;;20.50;98598.00;;;;2087157;28;20228;-68
2021/01/23 01:06:18;;;;;;;12.37;10.07;;;;;20.50;98590.00;;;;2087568;28;20459;-68
2021/01/23 01:07:18;;;;;;;12.23;10.10;;;;;20.50;98603.00;;;;2087653;28;20780;-68
2021/01/23 01:08:18;;;;;;;11.00;9.90;;;;;20.50;98602.00;;;;2078659;28;20716;-68
2021/01/23 01:09:19;;;;;;;11.67;10.57;;;;;20.50;98599.00;;;;2070637;28;20217;-68
2021/01/23 01:10:19;;;;;;;10.80;9.80;;;;;20.50;98602.00;;;;2070599;28;20241;-68
2021/01/23 01:11:19;;;;;;;11.03;10.03;;;;;20.50;98602.00;;;;2078820;28;20213;-68
2021/01/23 01:12:20;;;;;;;11.33;10.20;;;;;20.50;98607.00;;;;2087573;28;20729;-68
2021/01/23 01:13:23;;;;;;;10.10;9.20;;;;;20.50;98606.00;;;;2086756;28;20248;-68
2021/01/23 01:14:23;;;;;;;11.43;10.32;;;;;20.40;98604.00;;;;2085798;28;20284;-68
2021/01/23 01:15:24;;;;;;;10.50;9.50;;;;;20.50;98605.00;;;;2087570;28;20246;-68
2021/01/23 01:16:25;;;;;;;9.73;8.83;;;;;20.50;98616.00;;;;2078684;28;20302;-68
2021/01/23 01:17:25;;;;;;;10.33;9.33;;;;;20.50;98604.00;;;;2070633;28;21166;-68
2021/01/23 01:18:25;;;;;;;10.93;9.80;;;;;20.50;98612.00;;;;2078411;28;20564;-68
2021/01/23 01:19:26;;;;;;;9.93;8.93;;;;;20.50;98617.00;;;;2087302;28;20224;-68
2021/01/23 01:20:26;;;;;;;10.50;9.50;;;;;20.50;98614.00;;;;2087434;28;20225;-68
2021/01/23 01:21:26;;;;;;;8.90;8.10;;;;;20.50;98619.00;;;;2087355;28;20227;-68
2021/01/23 01:22:28;;;;;;;9.23;8.43;;;;;20.40;98613.00;;;;2087371;28;20275;-68
2021/01/23 01:23:28;;;;;;;9.65;8.75;;;;;20.40;98621.00;;;;2086993;28;20756;-69
2021/01/23 01:24:29;;;;;;;10.20;9.20;;;;;20.40;98622.00;;;;2086774;28;20224;-68
2021/01/23 01:25:29;;;;;;;10.90;9.47;;;;;20.40;98617.00;;;;2087292;28;20311;-68
2021/01/23 01:26:29;;;;;;;11.30;9.00;;;;;20.50;98614.00;;;;2087478;28;20230;-68
2021/01/23 01:27:30;;;;;;;10.30;9.30;;;;;20.40;98617.00;;;;2083878;28;20225;-68
2021/01/23 01:28:30;;;;;;;9.90;9.00;;;;;20.40;98618.00;;;;2087373;28;20248;-68
2021/01/23 01:29:30;;;;;;;9.40;8.40;;;;;20.50;98614.00;;;;2087541;28;20216;-68
2021/01/23 01:30:31;;;;;;;10.53;9.50;;;;;20.40;98609.00;;;;2087459;28;20300;-68
2021/01/23 01:31:31;;;;;;;9.13;8.33;;;;;20.40;98613.00;;;;2087374;28;20261;-68
2021/01/23 01:32:31;;;;;;;9.03;8.13;;;;;20.40;98617.00;;;;2087138;28;20213;-68
2021/01/23 01:33:32;;;;;;;9.77;8.90;;;;;20.40;98615.00;;;;2087051;28;20671;-68
2021/01/23 01:34:32;;;;;;;8.90;8.10;;;;;20.40;98624.00;;;;2086532;28;20702;-68
2021/01/23 01:35:33;;;;;;;9.93;8.70;;;;;20.40;98618.00;;;;2068107;28;20841;-68
2021/01/23 01:36:33;;;;;;;9.20;8.40;;;;;20.40;98617.00;;;;2077776;28;20229;-68
2021/01/23 01:37:33;;;;;;;9.67;8.77;;;;;20.40;98622.00;;;;2086443;28;20281;-68
2021/01/23 01:38:34;;;;;;;9.70;8.70;;;;;20.40;98623.00;;;;2087137;28;20227;-68
2021/01/23 01:39:34;;;;;;;8.87;7.97;;;;;20.40;98621.00;;;;2086796;28;20314;-68
2021/01/23 01:40:34;;;;;;;9.07;8.17;;;;;20.40;98628.00;;;;2087014;28;20219;-68
2021/01/23 01:41:38;;;;;;;8.47;7.67;;;;;20.40;98622.00;;;;2086961;28;20225;-68
2021/01/23 01:42:39;;;;;;;8.40;7.63;;;;;20.40;98622.00;;;;2069389;28;20221;-68
2021/01/23 01:43:39;;;;;;;8.37;7.57;;;;;20.40;98624.00;;;;2069224;28;20689;-68
2021/01/23 01:44:39;;;;;;;8.57;7.77;;;;;20.40;98617.00;;;;2087195;28;20270;-68
2021/01/23 01:45:40;;;;;;;8.33;7.63;;;;;20.40;98618.00;;;;2086976;28;20216;-68
2021/01/23 01:46:40;;;;;;;8.20;7.50;;;;;20.40;98614.00;;;;2078578;28;20711;-68
2021/01/23 01:47:40;;;;;;;8.07;7.37;;;;;20.40;98621.00;;;;2078300;28;20217;-68
2021/01/23 01:48:41;;;;;;;8.10;7.30;;;;;20.40;98617.00;;;;2078523;28;20658;-68
2021/01/23 01:49:41;;;;;;;9.93;8.83;;;;;20.40;98618.00;;;;2077873;28;21269;-68
2021/01/23 01:50:42;;;;;;;7.67;7.07;;;;;20.40;98554.00;;;;2078442;28;20730;-68
2021/01/23 01:51:42;;;;;;;9.20;8.30;;;;;20.30;98614.00;;;;2078212;28;20610;-68
2021/01/23 01:52:43;;;;;;;7.93;7.23;;;;;20.30;98612.00;;;;2078546;28;20221;-68
2021/01/23 01:53:46;;;;;;;7.67;6.97;;;;;20.30;98615.00;;;;2077813;28;20224;-68
2021/01/23 01:54:46;;;;;;;8.50;7.60;;;;;20.40;98620.00;;;;2070437;28;20219;-68
2021/01/23 01:55:46;;;;;;;7.90;6.97;;;;;20.40;98621.00;;;;2070359;28;20218;-68
2021/01/23 01:56:47;;;;;;;7.83;7.13;;;;;20.40;98612.00;;;;2069840;28;20220;-68
2021/01/23 01:57:47;;;;;;;7.90;7.20;;;;;20.30;98615.00;;;;2070153;28;20224;-68
2021/01/23 01:58:47;;;;;;;7.67;6.97;;;;;20.30;98617.00;;;;2078459;28;20214;-68
2021/01/23 01:59:48;;;;;;;7.40;6.80;;;;;20.30;98618.00;;;;2078525;28;20217;-68
2021/01/23 02:00:49;;;;;;;8.50;7.57;;;;;20.30;98616.00;;;;2087304;28;20718;-68
2021/01/23 02:01:57;;;;;;;7.60;6.80;;;;;20.30;98612.00;;;;2087174;28;20466;-68
2021/01/23 02:03:06;;;;;;;8.55;7.75;;;;;20.30;98609.00;;;;2078266;28;20208;-68
2021/01/23 02:04:16;;;;;;;7.53;6.82;;;;;20.30;98613.00;;;;2081187;28;20254;-68
2021/01/23 02:05:29;;;;;;;7.20;6.60;;;;;20.10;98608.00;;;;2079924;28;20722;-68
2021/01/23 02:06:44;;;;;;;7.50;6.80;;;;;20.30;98610.00;;;;2074314;28;20224;-68
2021/01/23 02:07:55;;;;;;;7.43;6.82;;;;;20.30;98602.00;;;;2088795;28;20248;-68
2021/01/23 02:09:17;;;;;;;7.00;6.30;;;;;20.30;98615.00;;;;2079514;28;20208;-68
2021/01/23 02:10:40;;;;;;;7.28;6.65;;;;;20.30;98612.00;;;;2074475;28;20601;-68
2021/01/23 02:11:58;;;;;;;7.50;6.80;;;;;20.30;98611.00;;;;2059717;28;20215;-68
2021/01/23 02:13:16;;;;;;;7.75;6.93;;;;;20.30;98607.00;;;;2076535;28;20227;-68
2021/01/23 02:14:24;;;;;;;7.20;6.50;;;;;20.30;98605.00;;;;2082169;28;20222;-68
2021/01/23 02:15:27;;;;;;;6.90;6.30;;;;;20.30;98609.00;;;;2072086;28;20248;-68
2021/01/23 02:16:33;;;;;;;7.00;6.20;;;;;20.30;98597.00;;;;2063658;28;20242;-68
2021/01/23 02:17:41;;;;;;;7.22;6.63;;;;;20.30;98600.00;;;;2065285;28;20217;-68
2021/01/23 02:18:42;;;;;;;8.13;6.28;;;;;20.30;98599.00;;;;2080835;28;20227;-68
2021/01/23 02:20:09;;;;;;;7.32;5.97;;;;;20.30;98598.00;;;;2079780;28;20225;-68
2021/01/23 02:21:16;;;;;;;7.10;6.40;;;;;20.30;98598.00;;;;2075113;28;20719;-68
2021/01/23 02:22:32;;;;;;;6.93;6.22;;;;;20.30;98597.00;;;;2079702;28;20219;-68
2021/01/23 02:23:32;;;;;;;7.95;6.00;;;;;20.30;98594.00;;;;2074802;28;20211;-68
2021/01/23 02:24:34;;;;;;;7.13;6.47;;;;;20.30;98595.00;;;;2071380;28;20214;-68
2021/01/23 02:25:39;;;;;;;6.32;5.72;;;;;20.20;98590.00;;;;2071716;28;20217;-68
2021/01/23 02:26:54;;;;;;;6.30;5.70;;;;;20.20;98589.00;;;;2071278;28;20299;-68
2021/01/23 02:28:13;;;;;;;6.22;5.72;;;;;20.20;98593.00;;;;2076006;28;20218;-68
2021/01/23 02:29:23;;;;;;;6.63;5.95;;;;;20.20;98590.00;;;;2079775;28;20217;-68
2021/01/23 02:30:28;;;;;;;6.72;6.13;;;;;20.20;98593.00;;;;2079713;28;20274;-68
2021/01/23 02:31:29;;;;;;;6.28;5.68;;;;;20.20;98589.00;;;;2079394;28;20217;-68
2021/01/23 02:32:30;;;;;;;6.13;5.57;;;;;20.20;98589.00;;;;2079033;28;20224;-68
2021/01/23 02:33:31;;;;;;;6.93;6.15;;;;;20.20;98593.00;;;;2070881;28;20449;-68
2021/01/23 02:34:31;;;;;;;6.80;6.03;;;;;20.20;98602.00;;;;2070893;28;20309;-68
2021/01/23 02:35:31;;;;;;;6.17;5.57;;;;;20.20;98588.00;;;;2070893;28;20221;-68
2021/01/23 02:36:32;;;;;;;6.90;6.33;;;;;20.20;98600.00;;;;2071062;28;20209;-68
2021/01/23 02:37:32;;;;;;;6.40;5.77;;;;;20.20;98596.00;;;;2070644;28;20222;-68
2021/01/23 02:38:33;;;;;;;6.20;5.60;;;;;20.20;98593.00;;;;2079063;28;20290;-68
2021/01/23 02:39:33;;;;;;;6.20;5.47;;;;;20.20;98595.00;;;;2087971;28;20238;-68
2021/01/23 02:40:34;;;;;;;6.10;5.50;;;;;20.20;98585.00;;;;2078902;28;20587;-68
2021/01/23 02:41:34;;;;;;;9.00;5.80;;;;;20.20;98588.00;;;;2070803;28;20222;-68
2021/01/23 02:42:35;;;;;;;6.57;5.97;;;;;20.20;98589.00;;;;2079128;28;20217;-68
2021/01/23 02:43:40;;;;;;;6.00;5.40;;;;;20.20;98595.00;;;;2078592;28;20243;-68
2021/01/23 02:44:40;;;;;;;5.80;5.30;;;;;20.20;98596.00;;;;2088037;28;20575;-68
2021/01/23 02:45:40;;;;;;;6.30;5.80;;;;;20.20;98597.00;;;;2087812;28;20219;-68
2021/01/23 02:46:41;;;;;;;6.57;5.97;;;;;20.20;98597.00;;;;2087635;28;20273;-68
2021/01/23 02:47:41;;;;;;;6.80;5.73;;;;;20.20;98591.00;;;;2079056;28;20204;-68
2021/01/23 02:48:41;;;;;;;6.43;5.83;;;;;20.20;98596.00;;;;2079071;28;20270;-68
2021/01/23 02:49:42;;;;;;;5.57;5.10;;;;;20.20;98595.00;;;;2079505;28;20204;-68
2021/01/23 02:50:42;;;;;;;5.77;5.37;;;;;20.20;98598.00;;;;2068641;28;20214;-68
2021/01/23 02:51:59;;;;;;;6.53;5.73;;;;;20.20;98593.00;;;;2054519;28;20296;-68
2021/01/23 02:53:19;;;;;;;5.70;5.13;;;;;20.20;98598.00;;;;2062688;28;20229;-68
2021/01/23 02:54:39;;;;;;;5.80;5.20;;;;;20.20;98592.00;;;;2074378;28;20738;-68
2021/01/23 02:55:39;;;;;;;7.18;5.82;;;;;20.20;98595.00;;;;2081650;28;20235;-68
2021/01/23 02:56:40;;;;;;;5.73;5.20;;;;;20.10;98589.00;;;;2079512;28;20680;-68
2021/01/23 02:57:41;;;;;;;5.87;5.27;;;;;20.20;98594.00;;;;2071525;28;20295;-68
2021/01/23 02:58:41;;;;;;;6.43;5.80;;;;;20.20;98592.00;;;;2071280;28;20249;-68
2021/01/23 02:59:42;;;;;;;5.80;5.30;;;;;20.10;98593.00;;;;2079375;28;20217;-68
2021/01/23 03:00:43;;;;;;;6.32;5.72;;;;;20.10;98589.00;;;;2071189;28;20261;-68
2021/01/23 03:01:43;;;;;;;5.90;5.40;;;;;20.20;98594.00;;;;2071375;28;20224;-68
2021/01/23 03:02:47;;;;;;;5.43;4.93;;;;;20.20;98593.00;;;;2070753;28;20452;-68
2021/01/23 03:03:48;;;;;;;7.97;5.72;;;;;20.20;98577.00;;;;2066377;28;20213;-68
2021/01/23 03:04:48;;;;;;;5.38;4.93;;;;;20.10;98585.00;;;;2062588;28;20228;-68
2021/01/23 03:05:49;;;;;;;6.30;5.70;;;;;20.10;98587.00;;;;2063062;28;20700;-68
2021/01/23 03:06:49;;;;;;;5.90;5.20;;;;;20.10;98587.00;;;;2079554;28;20212;-68
2021/01/23 03:07:53;;;;;;;6.10;5.47;;;;;20.10;98585.00;;;;2063228;28;20210;-68
2021/01/23 03:08:53;;;;;;;5.80;5.25;;;;;20.10;98589.00;;;;2069892;28;20312;-68
2021/01/23 03:09:54;;;;;;;4.53;4.23;;;;;20.10;98584.00;;;;2079437;28;20275;-68
2021/01/23 03:10:54;;;;;;;4.97;4.40;;;;;20.10;98591.00;;;;2087901;28;20220;-68
2021/01/23 03:11:54;;;;;;;5.70;5.13;;;;;20.10;98590.00;;;;2079466;28;20299;-68
2021/01/23 03:12:55;;;;;;;6.33;5.13;;;;;20.10;98583.00;;;;2071237;28;20225;-68
2021/01/23 03:13:55;;;;;;;5.47;5.00;;;;;20.10;98579.00;;;;2078958;28;20236;-68
2021/01/23 03:14:55;;;;;;;5.43;5.03;;;;;20.10;98581.00;;;;2087410;28;20236;-68
2021/01/23 03:15:56;;;;;;;5.37;4.93;;;;;20.10;98581.00;;;;2088011;28;20212;-68
2021/01/23 03:16:56;;;;;;;6.20;5.60;;;;;20.10;98582.00;;;;2087349;28;20246;-68
2021/01/23 03:17:57;;;;;;;6.23;4.90;;;;;20.10;98582.00;;;;2070866;28;20214;-68
2021/01/23 03:18:57;;;;;;;5.00;4.60;;;;;20.10;98574.00;;;;2070787;28;20733;-68
2021/01/23 03:19:57;;;;;;;6.00;5.40;;;;;20.10;98576.00;;;;2086554;28;20221;-68
2021/01/23 03:20:58;;;;;;;5.57;4.90;;;;;20.10;98578.00;;;;2087665;28;20212;-68
2021/01/23 03:21:58;;;;;;;5.43;4.77;;;;;20.10;98580.00;;;;2087988;28;20329;-68
2021/01/23 03:22:58;;;;;;;5.70;5.20;;;;;20.10;98575.00;;;;2079304;28;20687;-68
2021/01/23 03:23:59;;;;;;;6.10;4.80;;;;;20.10;98578.00;;;;2070587;28;20303;-68
2021/01/23 03:24:59;;;;;;;5.10;4.40;;;;;20.10;98581.00;;;;2078429;28;20760;-68
2021/01/23 03:25:59;;;;;;;4.77;4.33;;;;;20.10;98576.00;;;;2088068;28;20224;-68
2021/01/23 03:27:00;;;;;;;5.23;4.70;;;;;20.10;98567.00;;;;2087904;28;20291;-69
2021/01/23 03:28:00;;;;;;;6.57;4.77;;;;;20.10;98577.00;;;;2088061;28;20220;-68
2021/01/23 03:29:01;;;;;;;5.33;4.83;;;;;20.10;98582.00;;;;2079320;28;20222;-68
2021/01/23 03:30:03;;;;;;;4.90;4.50;;;;;20.10;98575.00;;;;2079422;28;20666;-68
2021/01/23 03:31:04;;;;;;;5.18;4.70;;;;;20.10;98575.00;;;;2087311;28;20219;-68
2021/01/23 03:32:04;;;;;;;5.40;4.83;;;;;20.10;98580.00;;;;2087021;28;20745;-68
2021/01/23 03:33:05;;;;;;;5.47;4.93;;;;;20.00;98581.00;;;;2087422;28;20251;-68
2021/01/23 03:34:05;;;;;;;5.53;4.37;;;;;20.00;98577.00;;;;2078210;28;20325;-68
2021/01/23 03:35:06;;;;;;;5.77;4.77;;;;;20.00;98580.00;;;;2072684;28;20926;-69
2021/01/23 03:36:07;;;;;;;5.10;4.60;;;;;20.10;98573.00;;;;2082388;28;20215;-68
2021/01/23 03:37:07;;;;;;;4.77;4.37;;;;;20.00;98572.00;;;;2087830;28;20533;-69
2021/01/23 03:38:07;;;;;;;4.97;4.47;;;;;20.10;98570.00;;;;2087973;28;20207;-68
2021/01/23 03:39:08;;;;;;;4.67;4.27;;;;;20.10;98571.00;;;;2087669;28;20285;-68
2021/01/23 03:40:09;;;;;;;5.43;4.70;;;;;20.00;98572.00;;;;2087753;28;20297;-68
2021/01/23 03:41:09;;;;;;;5.00;4.50;;;;;20.00;98575.00;;;;2079085;28;20781;-68
2021/01/23 03:42:09;;;;;;;4.73;4.27;;;;;20.00;98567.00;;;;2071005;28;20469;-68
2021/01/23 03:43:10;;;;;;;5.47;5.07;;;;;20.00;98569.00;;;;2070741;28;20213;-68
2021/01/23 03:44:10;;;;;;;4.80;4.40;;;;;20.00;98576.00;;;;2079020;28;20218;-68
2021/01/23 03:45:11;;;;;;;4.67;4.17;;;;;20.00;98569.00;;;;2078846;28;20215;-68
2021/01/23 03:46:11;;;;;;;5.60;4.93;;;;;20.00;98575.00;;;;2078350;28;20234;-68
2021/01/23 03:47:11;;;;;;;5.47;4.97;;;;;20.00;98564.00;;;;2087837;28;20650;-68
2021/01/23 03:48:12;;;;;;;5.27;4.87;;;;;20.00;98563.00;;;;2087941;28;20621;-68
2021/01/23 03:49:12;;;;;;;4.77;4.30;;;;;20.00;98571.00;;;;2087977;28;20220;-68
2021/01/23 03:50:13;;;;;;;5.83;5.20;;;;;20.00;98560.00;;;;2087756;28;20727;-68
2021/01/23 03:51:13;;;;;;;4.70;4.30;;;;;20.00;98564.00;;;;2087903;28;20720;-68
2021/01/23 03:52:13;;;;;;;5.40;4.90;;;;;20.00;98559.00;;;;2087726;28;20595;-68
2021/01/23 03:53:14;;;;;;;5.10;4.60;;;;;20.00;98564.00;;;;2078365;28;20598;-68
2021/01/23 03:54:14;;;;;;;5.30;4.23;;;;;20.00;98557.00;;;;2070763;28;20228;-68
2021/01/23 03:55:14;;;;;;;4.77;4.37;;;;;20.00;98560.00;;;;2078993;28;20292;-68
2021/01/23 03:56:15;;;;;;;5.27;4.53;;;;;20.00;98561.00;;;;2087236;28;20238;-68
2021/01/23 03:57:15;;;;;;;7.93;4.40;;;;;20.00;98553.00;;;;2087941;28;20248;-68
2021/01/23 03:58:17;;;;;;;5.30;4.40;;;;;20.00;98547.00;;;;2087922;28;20206;-68
2021/01/23 03:59:17;;;;;;;4.63;4.05;;;;;20.00;98552.00;;;;2087661;28;20214;-68
2021/01/23 04:00:18;;;;;;;5.50;4.17;;;;;20.00;98544.00;;;;2087780;28;20694;-68
2021/01/23 04:01:18;;;;;;;5.30;4.50;;;;;20.00;98537.00;;;;2087819;28;20221;-68
2021/01/23 04:02:18;;;;;;;4.20;3.90;;;;;19.90;98538.00;;;;2087877;28;20222;-68
2021/01/23 04:03:18;;;;;;;4.70;4.30;;;;;20.00;98544.00;;;;2087439;28;20240;-68
2021/01/23 04:04:19;;;;;;;4.40;4.10;;;;;19.90;98539.00;;;;2087637;28;20225;-69
2021/01/23 04:05:19;;;;;;;4.70;4.30;;;;;20.00;98542.00;;;;2073534;28;20257;-68
2021/01/23 04:06:19;;;;;;;4.20;3.90;;;;;20.00;98539.00;;;;2073360;28;20213;-68
2021/01/23 04:07:20;;;;;;;5.10;4.27;;;;;20.00;98539.00;;;;2087408;28;20296;-69
2021/01/23 04:08:20;;;;;;;5.17;4.13;;;;;20.00;98541.00;;;;2087527;28;20696;-68
2021/01/23 04:09:20;;;;;;;4.60;4.20;;;;;20.00;98536.00;;;;2087555;28;20748;-68
2021/01/23 04:10:21;;;;;;;4.73;4.33;;;;;20.00;98543.00;;;;2087943;28;20777;-68
2021/01/23 04:11:21;;;;;;;4.30;3.97;;;;;19.90;98528.00;;;;2088044;28;20571;-68
2021/01/23 04:12:21;;;;;;;4.80;4.40;;;;;19.90;98537.00;;;;2087665;28;20736;-68
2021/01/23 04:13:22;;;;;;;4.60;4.20;;;;;20.00;98536.00;;;;2087411;28;20734;-68
2021/01/23 04:14:22;;;;;;;4.50;3.90;;;;;19.90;98542.00;;;;2070733;28;20219;-68
2021/01/23 04:15:23;;;;;;;4.50;4.10;;;;;19.90;98536.00;;;;2078515;28;20607;-68
2021/01/23 04:16:23;;;;;;;5.10;3.63;;;;;19.90;98547.00;;;;2078231;28;20765;-68
2021/01/23 04:17:23;;;;;;;4.43;4.03;;;;;19.90;98528.00;;;;2070725;28;20732;-68
2021/01/23 04:18:24;;;;;;;4.50;3.80;;;;;19.90;98529.00;;;;2078878;28;20716;-68
2021/01/23 04:19:24;;;;;;;5.07;4.30;;;;;19.90;98540.00;;;;2087659;28;20216;-68
2021/01/23 04:20:24;;;;;;;5.03;4.53;;;;;19.90;98542.00;;;;2087485;28;20289;-68
2021/01/23 04:21:25;;;;;;;4.00;3.70;;;;;19.90;98542.00;;;;2085240;28;20214;-68
2021/01/23 04:22:25;;;;;;;4.33;3.93;;;;;19.90;98539.00;;;;2087424;28;20223;-68
2021/01/23 04:23:25;;;;;;;4.33;3.93;;;;;19.90;98538.00;;;;2087268;28;20222;-68
2021/01/23 04:24:26;;;;;;;4.57;3.67;;;;;19.90;98539.00;;;;2087534;28;20242;-69
2021/01/23 04:25:26;;;;;;;4.93;3.87;;;;;19.90;98546.00;;;;2087591;28;20246;-68
2021/01/23 04:26:26;;;;;;;3.97;3.57;;;;;19.90;98536.00;;;;2083570;28;20220;-68
2021/01/23 04:27:27;;;;;;;3.90;3.60;;;;;19.90;98538.00;;;;2086960;28;20218;-68
2021/01/23 04:28:27;;;;;;;4.17;3.80;;;;;19.90;98536.00;;;;2087483;28;20216;-68
2021/01/23 04:29:27;;;;;;;4.87;3.80;;;;;19.90;98528.00;;;;2087647;28;20204;-69
2021/01/23 04:30:28;;;;;;;5.00;4.30;;;;;19.90;98527.00;;;;2087585;28;20207;-68
2021/01/23 04:31:28;;;;;;;4.00;3.60;;;;;19.90;98526.00;;;;2084966;28;20306;-68
2021/01/23 04:32:28;;;;;;;4.30;3.67;;;;;19.90;98527.00;;;;2087185;28;20219;-68
2021/01/23 04:33:29;;;;;;;3.73;3.33;;;;;19.90;98519.00;;;;2086395;28;20600;-68
2021/01/23 04:34:29;;;;;;;5.03;4.03;;;;;19.90;98525.00;;;;2077696;28;20726;-68
2021/01/23 04:35:29;;;;;;;3.90;3.60;;;;;19.90;98525.00;;;;2077679;28;20224;-68
2021/01/23 04:36:31;;;;;;;4.30;3.67;;;;;19.90;98522.00;;;;2084152;28;20381;-68
2021/01/23 04:37:31;;;;;;;4.03;3.60;;;;;19.90;98516.00;;;;2086433;28;20219;-68
2021/01/23 04:38:32;;;;;;;4.30;3.20;;;;;19.90;98520.00;;;;2087402;28;20222;-68
2021/01/23 04:39:32;;;;;;;3.67;3.30;;;;;19.90;98513.00;;;;2078319;28;20222;-68
2021/01/23 04:40:32;;;;;;;4.17;3.17;;;;;19.90;98525.00;;;;2078321;28;20885;-68
2021/01/23 04:41:33;;;;;;;4.00;3.40;;;;;19.90;98504.00;;;;2078467;28;20688;-68
2021/01/23 04:42:33;;;;;;;5.20;3.50;;;;;19.90;98515.00;;;;2070538;28;20231;-68
2021/01/23 04:43:34;;;;;;;3.80;3.50;;;;;19.90;98516.00;;;;2070002;28;20712;-69
2021/01/23 04:44:35;;;;;;;3.30;3.00;;;;;19.90;98511.00;;;;2078733;28;20242;-68
2021/01/23 04:45:35;;;;;;;4.22;3.22;;;;;19.90;98509.00;;;;2087650;28;20215;-68
2021/01/23 04:46:35;;;;;;;3.80;3.40;;;;;19.90;98501.00;;;;2087462;28;20757;-68
2021/01/23 04:47:36;;;;;;;3.50;3.03;;;;;19.90;98499.00;;;;2070706;28;20225;-68
2021/01/23 04:48:37;;;;;;;4.07;3.53;;;;;19.90;98500.00;;;;2070666;28;20233;-68
2021/01/23 04:49:37;;;;;;;3.47;3.17;;;;;19.90;98497.00;;;;2078588;28;20693;-68
2021/01/23 04:50:37;;;;;;;4.03;3.47;;;;;19.80;98492.00;;;;2078659;28;20264;-68
2021/01/23 04:51:38;;;;;;;3.43;3.10;;;;;19.80;98499.00;;;;2087332;28;20237;-68
2021/01/23 04:52:39;;;;;;;3.73;3.33;;;;;19.80;98496.00;;;;2078551;28;20216;-68
2021/01/23 04:53:39;;;;;;;3.58;3.22;;;;;19.80;98492.00;;;;2078327;28;20229;-68
2021/01/23 04:54:41;;;;;;;3.80;3.40;;;;;19.90;98499.00;;;;2070732;28;20227;-68
2021/01/23 04:55:45;;;;;;;4.88;3.35;;;;;19.90;98490.00;;;;2070884;28;20577;-68
2021/01/23 04:56:45;;;;;;;3.40;3.10;;;;;19.90;98497.00;;;;2071051;28;20232;-68
2021/01/23 04:57:45;;;;;;;3.50;3.20;;;;;19.80;98500.00;;;;2078848;28;20227;-68
2021/01/23 04:58:46;;;;;;;3.50;3.20;;;;;19.80;98500.00;;;;2087552;28;20558;-68
2021/01/23 04:59:46;;;;;;;3.30;3.10;;;;;19.80;98494.00;;;;2077337;28;20857;-68
2021/01/23 05:00:46;;;;;;;3.47;2.97;;;;;19.80;98499.00;;;;2078646;28;20238;-69
2021/01/23 05:02:16;;;;;;;2.80;2.60;;;;;19.80;98494.00;;;;2087343;28;20218;-68
2021/01/23 05:03:16;;;;;;;3.47;3.17;;;;;19.80;98495.00;;;;2086838;28;20218;-68
2021/01/23 05:04:17;;;;;;;3.53;3.00;;;;;19.80;98496.00;;;;2087388;28;20352;-68
2021/01/23 05:05:17;;;;;;;3.43;3.13;;;;;19.80;98501.00;;;;2082370;28;20245;-68
2021/01/23 05:06:17;;;;;;;3.30;3.00;;;;;19.80;98506.00;;;;2086757;28;20232;-68
2021/01/23 05:07:37;;;;;;;3.50;3.20;;;;;19.80;98507.00;;;;2070355;28;20215;-68